sensor_id;sensor_type;location;lat;lon;timestamp;temperature;humidity
11140;DHT22;5624;49.388;11.350;2024-01-30T00:01:38;1.40;72.80
11140;DHT22;5624;49.388;11.350;2024-01-30T00:04:04;1.40;73.00
11140;DHT22;5624;49.388;11.350;2024-01-30T00:06:29;1.40;73.20
11140;DHT22;5624;49.388;11.350;2024-01-30T00:08:55;1.40;73.10
11140;DHT22;5624;49.388;11.350;2024-01-30T00:11:20;1.30;73.00
11140;DHT22;5624;49.388;11.350;2024-01-30T00:13:46;1.20;73.70
11140;DHT22;5624;49.388;11.350;2024-01-30T00:16:24;1.20;74.00
11140;DHT22;5624;49.388;11.350;2024-01-30T00:18:51;1.10;74.20
11140;DHT22;5624;49.388;11.350;2024-01-30T00:21:17;1.10;74.00
11140;DHT22;5624;49.388;11.350;2024-01-30T00:23:43;1.00;74.00
11140;DHT22;5624;49.388;11.350;2024-01-30T00:26:08;1.00;74.30
11140;DHT22;5624;49.388;11.350;2024-01-30T00:28:34;0.90;74.70
11140;DHT22;5624;49.388;11.350;2024-01-30T00:30:59;0.80;75.20
11140;DHT22;5624;49.388;11.350;2024-01-30T00:33:25;0.90;74.30
11140;DHT22;5624;49.388;11.350;2024-01-30T00:35:51;1.00;73.50
11140;DHT22;5624;49.388;11.350;2024-01-30T00:38:16;1.00;72.60
11140;DHT22;5624;49.388;11.350;2024-01-30T00:40:42;1.10;71.60
11140;DHT22;5624;49.388;11.350;2024-01-30T00:43:07;1.20;70.80
11140;DHT22;5624;49.388;11.350;2024-01-30T00:45:33;1.20;70.20
11140;DHT22;5624;49.388;11.350;2024-01-30T00:47:58;1.30;69.40
11140;DHT22;5624;49.388;11.350;2024-01-30T00:50:24;1.30;68.60
11140;DHT22;5624;49.388;11.350;2024-01-30T00:52:49;1.40;68.00
11140;DHT22;5624;49.388;11.350;2024-01-30T00:55:15;1.40;67.60
11140;DHT22;5624;49.388;11.350;2024-01-30T00:57:40;1.50;67.50
11140;DHT22;5624;49.388;11.350;2024-01-30T01:00:07;1.50;67.20
11140;DHT22;5624;49.388;11.350;2024-01-30T01:02:34;1.50;67.10
11140;DHT22;5624;49.388;11.350;2024-01-30T01:05:00;1.40;67.20
11140;DHT22;5624;49.388;11.350;2024-01-30T01:07:25;1.40;67.60
11140;DHT22;5624;49.388;11.350;2024-01-30T01:09:51;1.50;67.30
11140;DHT22;5624;49.388;11.350;2024-01-30T01:12:16;1.40;67.30
11140;DHT22;5624;49.388;11.350;2024-01-30T01:14:42;1.40;68.00
11140;DHT22;5624;49.388;11.350;2024-01-30T01:17:07;1.30;68.30
11140;DHT22;5624;49.388;11.350;2024-01-30T01:19:33;1.30;69.10
11140;DHT22;5624;49.388;11.350;2024-01-30T01:21:58;1.20;69.90
11140;DHT22;5624;49.388;11.350;2024-01-30T01:24:24;1.10;70.60
11140;DHT22;5624;49.388;11.350;2024-01-30T01:26:49;0.90;71.30
11140;DHT22;5624;49.388;11.350;2024-01-30T01:29:15;0.80;71.80
11140;DHT22;5624;49.388;11.350;2024-01-30T01:31:41;0.80;72.10
11140;DHT22;5624;49.388;11.350;2024-01-30T01:34:13;0.70;72.40
11140;DHT22;5624;49.388;11.350;2024-01-30T01:36:39;0.70;72.40
11140;DHT22;5624;49.388;11.350;2024-01-30T01:39:05;0.70;72.90
11140;DHT22;5624;49.388;11.350;2024-01-30T01:41:31;0.70;72.90
11140;DHT22;5624;49.388;11.350;2024-01-30T01:44:00;0.70;73.10
11140;DHT22;5624;49.388;11.350;2024-01-30T01:46:30;0.70;73.50
11140;DHT22;5624;49.388;11.350;2024-01-30T01:48:58;0.60;73.70
11140;DHT22;5624;49.388;11.350;2024-01-30T01:51:26;0.60;73.90
11140;DHT22;5624;49.388;11.350;2024-01-30T01:53:53;0.70;73.80
11140;DHT22;5624;49.388;11.350;2024-01-30T01:56:19;0.70;73.50
11140;DHT22;5624;49.388;11.350;2024-01-30T01:58:45;0.70;73.40
11140;DHT22;5624;49.388;11.350;2024-01-30T02:01:12;0.70;73.40
11140;DHT22;5624;49.388;11.350;2024-01-30T02:03:39;0.70;73.40
11140;DHT22;5624;49.388;11.350;2024-01-30T02:06:05;0.70;73.60
11140;DHT22;5624;49.388;11.350;2024-01-30T02:08:30;0.60;74.00
11140;DHT22;5624;49.388;11.350;2024-01-30T02:10:56;0.60;74.20
11140;DHT22;5624;49.388;11.350;2024-01-30T02:13:22;0.70;74.10
11140;DHT22;5624;49.388;11.350;2024-01-30T02:15:51;0.70;74.40
11140;DHT22;5624;49.388;11.350;2024-01-30T02:18:17;0.70;74.50
11140;DHT22;5624;49.388;11.350;2024-01-30T02:20:43;0.70;74.60
11140;DHT22;5624;49.388;11.350;2024-01-30T02:23:10;0.70;74.80
11140;DHT22;5624;49.388;11.350;2024-01-30T02:25:39;0.70;74.90
11140;DHT22;5624;49.388;11.350;2024-01-30T02:28:10;0.70;75.30
11140;DHT22;5624;49.388;11.350;2024-01-30T02:30:37;0.60;75.20
11140;DHT22;5624;49.388;11.350;2024-01-30T02:33:02;0.60;75.50
11140;DHT22;5624;49.388;11.350;2024-01-30T02:35:28;0.60;75.40
11140;DHT22;5624;49.388;11.350;2024-01-30T02:37:53;0.60;75.60
11140;DHT22;5624;49.388;11.350;2024-01-30T02:40:19;0.70;75.60
11140;DHT22;5624;49.388;11.350;2024-01-30T02:42:45;0.60;75.70
11140;DHT22;5624;49.388;11.350;2024-01-30T02:45:11;0.60;76.10
11140;DHT22;5624;49.388;11.350;2024-01-30T02:47:36;0.70;76.00
11140;DHT22;5624;49.388;11.350;2024-01-30T02:50:02;0.60;76.30
11140;DHT22;5624;49.388;11.350;2024-01-30T02:52:28;0.60;76.60
11140;DHT22;5624;49.388;11.350;2024-01-30T02:54:53;0.60;77.00
11140;DHT22;5624;49.388;11.350;2024-01-30T02:57:19;0.60;77.30
11140;DHT22;5624;49.388;11.350;2024-01-30T02:59:44;0.60;77.70
11140;DHT22;5624;49.388;11.350;2024-01-30T03:02:10;0.60;78.00
11140;DHT22;5624;49.388;11.350;2024-01-30T03:04:35;0.50;78.60
11140;DHT22;5624;49.388;11.350;2024-01-30T03:07:01;0.40;79.20
11140;DHT22;5624;49.388;11.350;2024-01-30T03:09:26;0.40;79.50
11140;DHT22;5624;49.388;11.350;2024-01-30T03:11:52;0.40;80.10
11140;DHT22;5624;49.388;11.350;2024-01-30T03:14:18;0.30;80.40
11140;DHT22;5624;49.388;11.350;2024-01-30T03:16:43;0.20;81.00
11140;DHT22;5624;49.388;11.350;2024-01-30T03:19:09;0.20;81.10
11140;DHT22;5624;49.388;11.350;2024-01-30T03:21:35;0.20;81.40
11140;DHT22;5624;49.388;11.350;2024-01-30T03:24:00;0.20;81.70
11140;DHT22;5624;49.388;11.350;2024-01-30T03:26:26;0.20;82.00
11140;DHT22;5624;49.388;11.350;2024-01-30T03:28:51;0.20;82.10
11140;DHT22;5624;49.388;11.350;2024-01-30T03:31:17;0.20;82.30
11140;DHT22;5624;49.388;11.350;2024-01-30T03:33:43;0.20;82.70
11140;DHT22;5624;49.388;11.350;2024-01-30T03:36:09;0.20;83.00
11140;DHT22;5624;49.388;11.350;2024-01-30T03:38:35;0.30;83.00
11140;DHT22;5624;49.388;11.350;2024-01-30T03:41:00;0.30;82.90
11140;DHT22;5624;49.388;11.350;2024-01-30T03:43:26;0.40;82.90
11140;DHT22;5624;49.388;11.350;2024-01-30T03:45:52;0.40;83.10
11140;DHT22;5624;49.388;11.350;2024-01-30T03:48:18;0.50;83.10
11140;DHT22;5624;49.388;11.350;2024-01-30T03:50:43;0.50;83.00
11140;DHT22;5624;49.388;11.350;2024-01-30T03:53:09;0.50;83.00
11140;DHT22;5624;49.388;11.350;2024-01-30T03:55:34;0.50;83.30
11140;DHT22;5624;49.388;11.350;2024-01-30T03:58:00;0.50;83.70
11140;DHT22;5624;49.388;11.350;2024-01-30T04:00:26;0.60;83.40
11140;DHT22;5624;49.388;11.350;2024-01-30T04:02:52;0.50;83.90
11140;DHT22;5624;49.388;11.350;2024-01-30T04:05:17;0.50;84.10
11140;DHT22;5624;49.388;11.350;2024-01-30T04:07:43;0.60;84.30
11140;DHT22;5624;49.388;11.350;2024-01-30T04:10:09;0.70;83.80
11140;DHT22;5624;49.388;11.350;2024-01-30T04:12:35;0.70;84.00
11140;DHT22;5624;49.388;11.350;2024-01-30T04:15:02;0.70;84.10
11140;DHT22;5624;49.388;11.350;2024-01-30T04:17:27;0.70;84.20
11140;DHT22;5624;49.388;11.350;2024-01-30T04:19:54;0.70;84.70
11140;DHT22;5624;49.388;11.350;2024-01-30T04:22:20;0.70;84.20
11140;DHT22;5624;49.388;11.350;2024-01-30T04:24:46;0.60;84.80
11140;DHT22;5624;49.388;11.350;2024-01-30T04:27:11;0.70;84.50
11140;DHT22;5624;49.388;11.350;2024-01-30T04:29:37;0.50;84.60
11140;DHT22;5624;49.388;11.350;2024-01-30T04:32:03;0.40;85.10
11140;DHT22;5624;49.388;11.350;2024-01-30T04:34:29;0.30;85.90
11140;DHT22;5624;49.388;11.350;2024-01-30T04:36:54;0.20;86.30
11140;DHT22;5624;49.388;11.350;2024-01-30T04:39:20;0.10;87.10
11140;DHT22;5624;49.388;11.350;2024-01-30T04:41:45;0.10;87.00
11140;DHT22;5624;49.388;11.350;2024-01-30T04:44:11;0.10;87.40
11140;DHT22;5624;49.388;11.350;2024-01-30T04:46:36;0.00;87.70
11140;DHT22;5624;49.388;11.350;2024-01-30T04:49:02;0.00;88.00
11140;DHT22;5624;49.388;11.350;2024-01-30T04:51:28;0.00;88.20
11140;DHT22;5624;49.388;11.350;2024-01-30T04:53:54;0.00;88.20
11140;DHT22;5624;49.388;11.350;2024-01-30T04:56:20;0.00;88.70
11140;DHT22;5624;49.388;11.350;2024-01-30T04:58:45;0.00;89.00
11140;DHT22;5624;49.388;11.350;2024-01-30T05:01:18;0.00;89.40
11140;DHT22;5624;49.388;11.350;2024-01-30T05:03:43;0.00;89.90
11140;DHT22;5624;49.388;11.350;2024-01-30T05:06:09;0.00;90.30
11140;DHT22;5624;49.388;11.350;2024-01-30T05:08:34;0.00;90.60
11140;DHT22;5624;49.388;11.350;2024-01-30T05:11:04;0.00;90.30
11140;DHT22;5624;49.388;11.350;2024-01-30T05:13:33;0.00;90.40
11140;DHT22;5624;49.388;11.350;2024-01-30T05:15:59;0.00;90.40
11140;DHT22;5624;49.388;11.350;2024-01-30T05:18:26;0.00;90.60
11140;DHT22;5624;49.388;11.350;2024-01-30T05:20:52;0.00;90.60
11140;DHT22;5624;49.388;11.350;2024-01-30T05:23:17;0.00;91.20
11140;DHT22;5624;49.388;11.350;2024-01-30T05:25:43;0.00;91.20
11140;DHT22;5624;49.388;11.350;2024-01-30T05:28:09;-0.10;91.90
11140;DHT22;5624;49.388;11.350;2024-01-30T05:30:34;0.00;91.60
11140;DHT22;5624;49.388;11.350;2024-01-30T05:33:00;-0.10;91.80
11140;DHT22;5624;49.388;11.350;2024-01-30T05:35:25;-0.10;91.80
11140;DHT22;5624;49.388;11.350;2024-01-30T05:37:51;-0.20;92.60
11140;DHT22;5624;49.388;11.350;2024-01-30T05:40:16;-0.20;92.40
11140;DHT22;5624;49.388;11.350;2024-01-30T05:42:42;-0.20;92.70
11140;DHT22;5624;49.388;11.350;2024-01-30T05:45:08;-0.20;92.80
11140;DHT22;5624;49.388;11.350;2024-01-30T05:47:34;-0.20;92.80
11140;DHT22;5624;49.388;11.350;2024-01-30T05:50:00;-0.30;93.00
11140;DHT22;5624;49.388;11.350;2024-01-30T05:52:26;-0.30;93.80
11140;DHT22;5624;49.388;11.350;2024-01-30T05:54:51;-0.30;94.10
11140;DHT22;5624;49.388;11.350;2024-01-30T05:57:17;-0.40;94.30
11140;DHT22;5624;49.388;11.350;2024-01-30T05:59:43;-0.30;94.20
11140;DHT22;5624;49.388;11.350;2024-01-30T06:02:10;-0.30;93.90
11140;DHT22;5624;49.388;11.350;2024-01-30T06:04:36;-0.30;93.60
11140;DHT22;5624;49.388;11.350;2024-01-30T06:07:02;-0.30;94.00
11140;DHT22;5624;49.388;11.350;2024-01-30T06:09:28;-0.40;94.70
11140;DHT22;5624;49.388;11.350;2024-01-30T06:11:54;-0.40;95.50
11140;DHT22;5624;49.388;11.350;2024-01-30T06:14:19;-0.40;96.00
11140;DHT22;5624;49.388;11.350;2024-01-30T06:16:45;-0.40;95.60
11140;DHT22;5624;49.388;11.350;2024-01-30T06:19:10;-0.40;95.70
11140;DHT22;5624;49.388;11.350;2024-01-30T06:21:36;-0.40;96.00
11140;DHT22;5624;49.388;11.350;2024-01-30T06:24:03;-0.40;96.00
11140;DHT22;5624;49.388;11.350;2024-01-30T06:26:29;-0.40;95.70
11140;DHT22;5624;49.388;11.350;2024-01-30T06:28:54;-0.40;95.70
11140;DHT22;5624;49.388;11.350;2024-01-30T06:31:21;-0.40;95.90
11140;DHT22;5624;49.388;11.350;2024-01-30T06:33:47;-0.40;95.90
11140;DHT22;5624;49.388;11.350;2024-01-30T06:36:13;-0.40;95.60
11140;DHT22;5624;49.388;11.350;2024-01-30T06:38:39;-0.50;96.80
11140;DHT22;5624;49.388;11.350;2024-01-30T06:41:05;-0.40;97.00
11140;DHT22;5624;49.388;11.350;2024-01-30T06:43:30;-0.40;96.80
11140;DHT22;5624;49.388;11.350;2024-01-30T06:45:56;-0.30;97.00
11140;DHT22;5624;49.388;11.350;2024-01-30T06:48:25;-0.30;96.50
11140;DHT22;5624;49.388;11.350;2024-01-30T06:50:53;-0.30;96.10
11140;DHT22;5624;49.388;11.350;2024-01-30T06:53:20;-0.30;96.50
11140;DHT22;5624;49.388;11.350;2024-01-30T06:55:46;-0.40;96.50
11140;DHT22;5624;49.388;11.350;2024-01-30T06:58:12;-0.30;96.80
11140;DHT22;5624;49.388;11.350;2024-01-30T07:00:37;-0.20;96.10
11140;DHT22;5624;49.388;11.350;2024-01-30T07:03:03;-0.20;96.10
11140;DHT22;5624;49.388;11.350;2024-01-30T07:05:29;-0.20;96.80
11140;DHT22;5624;49.388;11.350;2024-01-30T07:07:55;-0.20;96.50
11140;DHT22;5624;49.388;11.350;2024-01-30T07:10:20;-0.10;95.80
11140;DHT22;5624;49.388;11.350;2024-01-30T07:12:46;-0.10;95.70
11140;DHT22;5624;49.388;11.350;2024-01-30T07:15:11;-0.10;96.00
11140;DHT22;5624;49.388;11.350;2024-01-30T07:17:39;0.00;96.20
11140;DHT22;5624;49.388;11.350;2024-01-30T07:20:05;0.00;96.00
11140;DHT22;5624;49.388;11.350;2024-01-30T07:22:31;0.00;95.80
11140;DHT22;5624;49.388;11.350;2024-01-30T07:24:57;0.10;95.50
11140;DHT22;5624;49.388;11.350;2024-01-30T07:27:22;0.20;95.20
11140;DHT22;5624;49.388;11.350;2024-01-30T07:29:48;0.30;94.60
11140;DHT22;5624;49.388;11.350;2024-01-30T07:32:14;0.40;93.80
11140;DHT22;5624;49.388;11.350;2024-01-30T07:34:39;0.50;93.80
11140;DHT22;5624;49.388;11.350;2024-01-30T07:37:05;0.50;93.20
11140;DHT22;5624;49.388;11.350;2024-01-30T07:39:33;0.50;93.30
11140;DHT22;5624;49.388;11.350;2024-01-30T07:41:59;0.60;93.20
11140;DHT22;5624;49.388;11.350;2024-01-30T07:44:25;0.60;92.70
11140;DHT22;5624;49.388;11.350;2024-01-30T07:46:50;0.70;92.60
11140;DHT22;5624;49.388;11.350;2024-01-30T07:49:16;0.80;92.20
11140;DHT22;5624;49.388;11.350;2024-01-30T07:51:41;1.00;91.30
11140;DHT22;5624;49.388;11.350;2024-01-30T07:54:07;1.10;90.60
11140;DHT22;5624;49.388;11.350;2024-01-30T07:56:32;1.30;89.80
11140;DHT22;5624;49.388;11.350;2024-01-30T07:58:58;1.40;89.10
11140;DHT22;5624;49.388;11.350;2024-01-30T08:01:24;1.50;88.90
11140;DHT22;5624;49.388;11.350;2024-01-30T08:03:49;1.50;88.30
11140;DHT22;5624;49.388;11.350;2024-01-30T08:06:15;1.60;88.50
11140;DHT22;5624;49.388;11.350;2024-01-30T08:08:40;1.60;87.90
11140;DHT22;5624;49.388;11.350;2024-01-30T08:11:06;1.70;87.80
11140;DHT22;5624;49.388;11.350;2024-01-30T08:13:32;1.70;87.30
11140;DHT22;5624;49.388;11.350;2024-01-30T08:15:58;1.70;87.60
11140;DHT22;5624;49.388;11.350;2024-01-30T08:18:24;1.80;87.70
11140;DHT22;5624;49.388;11.350;2024-01-30T08:20:49;1.90;87.00
11140;DHT22;5624;49.388;11.350;2024-01-30T08:23:15;1.90;86.90
11140;DHT22;5624;49.388;11.350;2024-01-30T08:25:40;2.00;86.70
11140;DHT22;5624;49.388;11.350;2024-01-30T08:28:06;2.00;86.30
11140;DHT22;5624;49.388;11.350;2024-01-30T08:30:32;2.20;85.80
11140;DHT22;5624;49.388;11.350;2024-01-30T08:32:58;2.30;85.90
11140;DHT22;5624;49.388;11.350;2024-01-30T08:35:23;2.20;85.80
11140;DHT22;5624;49.388;11.350;2024-01-30T08:37:49;2.40;85.90
11140;DHT22;5624;49.388;11.350;2024-01-30T08:40:14;2.60;84.60
11140;DHT22;5624;49.388;11.350;2024-01-30T08:42:40;2.70;84.00
11140;DHT22;5624;49.388;11.350;2024-01-30T08:45:05;2.70;83.90
11140;DHT22;5624;49.388;11.350;2024-01-30T08:47:32;2.80;83.80
11140;DHT22;5624;49.388;11.350;2024-01-30T08:49:58;2.90;83.20
11140;DHT22;5624;49.388;11.350;2024-01-30T08:52:24;3.00;83.30
11140;DHT22;5624;49.388;11.350;2024-01-30T08:54:50;3.10;82.90
11140;DHT22;5624;49.388;11.350;2024-01-30T08:57:15;3.20;82.10
11140;DHT22;5624;49.388;11.350;2024-01-30T08:59:41;3.30;81.80
11140;DHT22;5624;49.388;11.350;2024-01-30T09:02:09;3.50;81.30
11140;DHT22;5624;49.388;11.350;2024-01-30T09:04:35;3.50;81.00
11140;DHT22;5624;49.388;11.350;2024-01-30T09:07:01;3.50;81.20
11140;DHT22;5624;49.388;11.350;2024-01-30T09:09:26;3.60;80.80
11140;DHT22;5624;49.388;11.350;2024-01-30T09:11:52;3.50;80.80
11140;DHT22;5624;49.388;11.350;2024-01-30T09:14:17;3.50;81.00
11140;DHT22;5624;49.388;11.350;2024-01-30T09:16:43;3.50;81.40
11140;DHT22;5624;49.388;11.350;2024-01-30T09:19:08;3.70;81.10
11140;DHT22;5624;49.388;11.350;2024-01-30T09:21:34;3.70;80.40
11140;DHT22;5624;49.388;11.350;2024-01-30T09:24:03;3.90;80.30
11140;DHT22;5624;49.388;11.350;2024-01-30T09:26:31;3.80;80.10
11140;DHT22;5624;49.388;11.350;2024-01-30T09:28:56;3.80;80.00
11140;DHT22;5624;49.388;11.350;2024-01-30T09:31:22;3.90;79.90
11140;DHT22;5624;49.388;11.350;2024-01-30T09:33:48;4.10;79.20
11140;DHT22;5624;49.388;11.350;2024-01-30T09:36:14;4.20;79.40
11140;DHT22;5624;49.388;11.350;2024-01-30T09:38:45;4.30;78.40
11140;DHT22;5624;49.388;11.350;2024-01-30T09:41:11;4.50;78.50
11140;DHT22;5624;49.388;11.350;2024-01-30T09:43:38;4.70;77.30
11140;DHT22;5624;49.388;11.350;2024-01-30T09:46:11;4.70;76.80
11140;DHT22;5624;49.388;11.350;2024-01-30T09:48:39;4.70;76.90
11140;DHT22;5624;49.388;11.350;2024-01-30T09:51:07;4.80;77.20
11140;DHT22;5624;49.388;11.350;2024-01-30T09:53:33;4.90;77.50
11140;DHT22;5624;49.388;11.350;2024-01-30T09:55:59;5.20;75.90
11140;DHT22;5624;49.388;11.350;2024-01-30T09:58:25;5.40;74.60
11140;DHT22;5624;49.388;11.350;2024-01-30T10:00:51;5.40;74.30
11140;DHT22;5624;49.388;11.350;2024-01-30T10:03:18;5.40;74.80
11140;DHT22;5624;49.388;11.350;2024-01-30T10:05:51;5.50;74.10
11140;DHT22;5624;49.388;11.350;2024-01-30T10:08:18;5.50;74.30
11140;DHT22;5624;49.388;11.350;2024-01-30T10:10:47;5.70;74.10
11140;DHT22;5624;49.388;11.350;2024-01-30T10:13:13;6.00;73.00
11140;DHT22;5624;49.388;11.350;2024-01-30T10:15:38;6.00;73.00
11140;DHT22;5624;49.388;11.350;2024-01-30T10:18:05;6.30;72.40
11140;DHT22;5624;49.388;11.350;2024-01-30T10:20:32;6.60;70.80
11140;DHT22;5624;49.388;11.350;2024-01-30T10:22:58;6.80;70.10
11140;DHT22;5624;49.388;11.350;2024-01-30T10:25:25;6.90;69.20
11140;DHT22;5624;49.388;11.350;2024-01-30T10:27:54;7.30;70.20
11140;DHT22;5624;49.388;11.350;2024-01-30T10:30:24;7.70;68.10
11140;DHT22;5624;49.388;11.350;2024-01-30T10:32:49;8.20;66.30
11140;DHT22;5624;49.388;11.350;2024-01-30T10:35:15;8.40;64.60
11140;DHT22;5624;49.388;11.350;2024-01-30T10:37:43;8.70;62.80
11140;DHT22;5624;49.388;11.350;2024-01-30T10:40:12;8.40;63.20
11140;DHT22;5624;49.388;11.350;2024-01-30T10:42:45;8.10;64.40
11140;DHT22;5624;49.388;11.350;2024-01-30T10:45:12;8.20;64.60
11140;DHT22;5624;49.388;11.350;2024-01-30T10:47:40;8.30;64.60
11140;DHT22;5624;49.388;11.350;2024-01-30T10:50:07;8.50;64.60
11140;DHT22;5624;49.388;11.350;2024-01-30T10:52:33;8.60;64.10
11140;DHT22;5624;49.388;11.350;2024-01-30T10:54:59;8.60;62.90
11140;DHT22;5624;49.388;11.350;2024-01-30T10:57:26;8.50;63.50
11140;DHT22;5624;49.388;11.350;2024-01-30T10:59:55;8.60;64.40
11140;DHT22;5624;49.388;11.350;2024-01-30T11:02:22;8.70;63.60
11140;DHT22;5624;49.388;11.350;2024-01-30T11:04:49;8.90;63.40
11140;DHT22;5624;49.388;11.350;2024-01-30T11:07:23;8.80;63.80
11140;DHT22;5624;49.388;11.350;2024-01-30T11:09:53;9.10;63.50
11140;DHT22;5624;49.388;11.350;2024-01-30T11:12:22;9.40;62.80
11140;DHT22;5624;49.388;11.350;2024-01-30T11:14:49;9.40;62.10
11140;DHT22;5624;49.388;11.350;2024-01-30T11:17:15;9.40;60.90
11140;DHT22;5624;49.388;11.350;2024-01-30T11:19:41;9.40;62.00
11140;DHT22;5624;49.388;11.350;2024-01-30T11:22:07;9.40;61.60
11140;DHT22;5624;49.388;11.350;2024-01-30T11:24:40;9.30;61.90
11140;DHT22;5624;49.388;11.350;2024-01-30T11:27:09;9.20;62.50
11140;DHT22;5624;49.388;11.350;2024-01-30T11:29:38;9.30;63.20
11140;DHT22;5624;49.388;11.350;2024-01-30T11:32:05;9.30;61.30
11140;DHT22;5624;49.388;11.350;2024-01-30T11:34:32;9.30;61.50
11140;DHT22;5624;49.388;11.350;2024-01-30T11:37:03;9.40;62.00
11140;DHT22;5624;49.388;11.350;2024-01-30T11:39:32;9.50;61.30
11140;DHT22;5624;49.388;11.350;2024-01-30T11:41:59;9.50;61.20
11140;DHT22;5624;49.388;11.350;2024-01-30T11:44:24;9.50;62.30
11140;DHT22;5624;49.388;11.350;2024-01-30T11:46:52;9.50;61.60
11140;DHT22;5624;49.388;11.350;2024-01-30T11:49:18;9.20;62.60
11140;DHT22;5624;49.388;11.350;2024-01-30T11:51:45;9.10;63.30
11140;DHT22;5624;49.388;11.350;2024-01-30T11:54:11;9.10;63.70
11140;DHT22;5624;49.388;11.350;2024-01-30T11:56:37;9.20;63.60
11140;DHT22;5624;49.388;11.350;2024-01-30T11:59:04;9.20;63.50
11140;DHT22;5624;49.388;11.350;2024-01-30T12:01:31;9.40;63.50
11140;DHT22;5624;49.388;11.350;2024-01-30T12:03:58;9.50;62.60
11140;DHT22;5624;49.388;11.350;2024-01-30T12:06:23;9.30;62.80
11140;DHT22;5624;49.388;11.350;2024-01-30T12:08:59;9.00;64.00
11140;DHT22;5624;49.388;11.350;2024-01-30T12:11:26;8.90;64.90
11140;DHT22;5624;49.388;11.350;2024-01-30T12:13:52;9.00;65.00
11140;DHT22;5624;49.388;11.350;2024-01-30T12:16:18;9.00;64.30
11140;DHT22;5624;49.388;11.350;2024-01-30T12:18:44;9.00;64.70
11140;DHT22;5624;49.388;11.350;2024-01-30T12:21:09;9.00;64.00
11140;DHT22;5624;49.388;11.350;2024-01-30T12:23:35;8.80;63.80
11140;DHT22;5624;49.388;11.350;2024-01-30T12:26:01;8.60;64.70
11140;DHT22;5624;49.388;11.350;2024-01-30T12:28:29;8.60;65.20
11140;DHT22;5624;49.388;11.350;2024-01-30T12:31:01;8.50;65.70
11140;DHT22;5624;49.388;11.350;2024-01-30T12:33:28;8.50;65.90
11140;DHT22;5624;49.388;11.350;2024-01-30T12:35:54;8.50;65.40
11140;DHT22;5624;49.388;11.350;2024-01-30T12:38:19;8.60;65.90
11140;DHT22;5624;49.388;11.350;2024-01-30T12:40:45;8.70;65.60
11140;DHT22;5624;49.388;11.350;2024-01-30T12:43:13;8.80;65.10
11140;DHT22;5624;49.388;11.350;2024-01-30T12:45:39;8.80;64.90
11140;DHT22;5624;49.388;11.350;2024-01-30T12:48:05;8.80;64.50
11140;DHT22;5624;49.388;11.350;2024-01-30T12:50:31;8.70;65.50
11140;DHT22;5624;49.388;11.350;2024-01-30T12:52:56;8.60;65.30
11140;DHT22;5624;49.388;11.350;2024-01-30T12:55:23;8.50;65.40
11140;DHT22;5624;49.388;11.350;2024-01-30T12:57:50;8.40;65.70
11140;DHT22;5624;49.388;11.350;2024-01-30T13:00:16;8.50;66.30
11140;DHT22;5624;49.388;11.350;2024-01-30T13:02:42;8.40;65.80
11140;DHT22;5624;49.388;11.350;2024-01-30T13:05:10;8.60;66.40
11140;DHT22;5624;49.388;11.350;2024-01-30T13:07:36;8.60;65.80
11140;DHT22;5624;49.388;11.350;2024-01-30T13:10:02;8.60;66.10
11140;DHT22;5624;49.388;11.350;2024-01-30T13:12:29;8.70;65.40
11140;DHT22;5624;49.388;11.350;2024-01-30T13:14:55;8.80;64.90
11140;DHT22;5624;49.388;11.350;2024-01-30T13:17:21;8.80;65.30
11140;DHT22;5624;49.388;11.350;2024-01-30T13:19:46;8.90;65.00
11140;DHT22;5624;49.388;11.350;2024-01-30T13:22:14;8.80;64.20
11140;DHT22;5624;49.388;11.350;2024-01-30T13:24:39;8.90;64.50
11140;DHT22;5624;49.388;11.350;2024-01-30T13:27:05;8.80;64.40
11140;DHT22;5624;49.388;11.350;2024-01-30T13:29:32;8.80;64.50
11140;DHT22;5624;49.388;11.350;2024-01-30T13:31:57;8.80;65.20
11140;DHT22;5624;49.388;11.350;2024-01-30T13:34:23;8.80;64.60
11140;DHT22;5624;49.388;11.350;2024-01-30T13:36:48;8.80;65.30
11140;DHT22;5624;49.388;11.350;2024-01-30T13:39:14;8.80;64.60
11140;DHT22;5624;49.388;11.350;2024-01-30T13:41:41;8.90;65.00
11140;DHT22;5624;49.388;11.350;2024-01-30T13:44:07;8.90;64.20
11140;DHT22;5624;49.388;11.350;2024-01-30T13:46:35;8.90;65.40
11140;DHT22;5624;49.388;11.350;2024-01-30T13:49:00;9.00;65.20
11140;DHT22;5624;49.388;11.350;2024-01-30T13:51:26;9.10;64.50
11140;DHT22;5624;49.388;11.350;2024-01-30T13:53:52;9.30;65.00
11140;DHT22;5624;49.388;11.350;2024-01-30T13:56:18;9.20;63.50
11140;DHT22;5624;49.388;11.350;2024-01-30T13:58:44;9.20;63.30
11140;DHT22;5624;49.388;11.350;2024-01-30T14:01:10;9.20;64.30
11140;DHT22;5624;49.388;11.350;2024-01-30T14:03:35;9.20;64.00
11140;DHT22;5624;49.388;11.350;2024-01-30T14:06:01;9.20;64.00
11140;DHT22;5624;49.388;11.350;2024-01-30T14:08:27;9.30;63.50
11140;DHT22;5624;49.388;11.350;2024-01-30T14:10:54;9.20;64.40
11140;DHT22;5624;49.388;11.350;2024-01-30T14:13:21;9.20;65.00
11140;DHT22;5624;49.388;11.350;2024-01-30T14:15:48;9.10;64.90
11140;DHT22;5624;49.388;11.350;2024-01-30T14:18:14;9.10;65.10
11140;DHT22;5624;49.388;11.350;2024-01-30T14:20:40;9.10;65.00
11140;DHT22;5624;49.388;11.350;2024-01-30T14:23:06;9.00;65.00
11140;DHT22;5624;49.388;11.350;2024-01-30T14:25:32;8.90;65.10
11140;DHT22;5624;49.388;11.350;2024-01-30T14:27:57;8.80;65.60
11140;DHT22;5624;49.388;11.350;2024-01-30T14:30:23;8.80;65.30
11140;DHT22;5624;49.388;11.350;2024-01-30T14:32:48;8.80;66.20
11140;DHT22;5624;49.388;11.350;2024-01-30T14:35:14;8.70;66.70
11140;DHT22;5624;49.388;11.350;2024-01-30T14:37:40;8.70;66.70
11140;DHT22;5624;49.388;11.350;2024-01-30T14:40:06;8.70;66.80
11140;DHT22;5624;49.388;11.350;2024-01-30T14:42:35;8.70;66.50
11140;DHT22;5624;49.388;11.350;2024-01-30T14:45:03;8.70;66.70
11140;DHT22;5624;49.388;11.350;2024-01-30T14:47:29;8.60;66.50
11140;DHT22;5624;49.388;11.350;2024-01-30T14:49:56;8.50;67.00
11140;DHT22;5624;49.388;11.350;2024-01-30T14:52:21;8.50;67.10
11140;DHT22;5624;49.388;11.350;2024-01-30T14:54:47;8.40;67.40
11140;DHT22;5624;49.388;11.350;2024-01-30T14:57:12;8.40;67.50
11140;DHT22;5624;49.388;11.350;2024-01-30T14:59:39;8.40;67.10
11140;DHT22;5624;49.388;11.350;2024-01-30T15:02:05;8.30;67.30
11140;DHT22;5624;49.388;11.350;2024-01-30T15:04:31;8.20;67.70
11140;DHT22;5624;49.388;11.350;2024-01-30T15:06:56;8.20;68.00
11140;DHT22;5624;49.388;11.350;2024-01-30T15:09:22;8.20;68.20
11140;DHT22;5624;49.388;11.350;2024-01-30T15:11:48;8.10;68.60
11140;DHT22;5624;49.388;11.350;2024-01-30T15:14:15;8.00;68.80
11140;DHT22;5624;49.388;11.350;2024-01-30T15:16:40;7.90;69.60
11140;DHT22;5624;49.388;11.350;2024-01-30T15:19:06;7.70;70.60
11140;DHT22;5624;49.388;11.350;2024-01-30T15:21:32;7.70;71.20
11140;DHT22;5624;49.388;11.350;2024-01-30T15:23:57;7.60;70.80
11140;DHT22;5624;49.388;11.350;2024-01-30T15:26:23;7.60;71.20
11140;DHT22;5624;49.388;11.350;2024-01-30T15:28:48;7.50;71.50
11140;DHT22;5624;49.388;11.350;2024-01-30T15:31:14;7.40;71.60
11140;DHT22;5624;49.388;11.350;2024-01-30T15:33:40;7.40;71.70
11140;DHT22;5624;49.388;11.350;2024-01-30T15:36:06;7.30;72.50
11140;DHT22;5624;49.388;11.350;2024-01-30T15:38:31;7.20;72.60